Terminal Aerodrome Forecast
Issued by NWS

Home | Current Version | Previous Version | Text Only | Print | Product List | Glossary On
Versions: 1 2 3 4 5 6 7 8 9 10 11 12 13 14 15 16 17 18 19 20 21 22 23 24 25 26
000
FTUS41 KPHI 260500
TAFMIV
TAF
KMIV 260537Z 2606/2706 03005KT P6SM OVC100
      TEMPO 2608/2611 4SM -RA OVC025
     FM261100 04011KT 4SM -RA OVC015
     FM261300 03012KT 2SM RA OVC005
     FM262200 36013G23KT 3SM -RASN OVC025
     FM270200 32011KT 5SM BR BKN030=

USA.gov is the U.S. government's official web portal to all federal, state and local government web resources and services.